sensor_id;sensor_type;location;lat;lon;timestamp;P1;durP1;ratioP1;P2;durP2;ratioP2
19733;SDS011;10018;51.230;7.860;2023-05-07T00:01:35;4.93;;;3.70;;
19733;SDS011;10018;51.230;7.860;2023-05-07T00:04:03;5.87;;;3.63;;
19733;SDS011;10018;51.230;7.860;2023-05-07T00:06:29;4.37;;;3.10;;
19733;SDS011;10018;51.230;7.860;2023-05-07T00:08:56;7.53;;;4.17;;
19733;SDS011;10018;51.230;7.860;2023-05-07T00:11:22;8.53;;;4.70;;
19733;SDS011;10018;51.230;7.860;2023-05-07T00:13:48;10.17;;;4.97;;
19733;SDS011;10018;51.230;7.860;2023-05-07T00:16:13;10.70;;;4.60;;
19733;SDS011;10018;51.230;7.860;2023-05-07T00:18:39;7.03;;;4.57;;
19733;SDS011;10018;51.230;7.860;2023-05-07T00:21:05;6.83;;;4.37;;
19733;SDS011;10018;51.230;7.860;2023-05-07T00:23:30;7.20;;;4.83;;
19733;SDS011;10018;51.230;7.860;2023-05-07T00:25:58;6.47;;;4.30;;
19733;SDS011;10018;51.230;7.860;2023-05-07T00:28:24;7.63;;;5.00;;
19733;SDS011;10018;51.230;7.860;2023-05-07T00:30:49;9.60;;;4.60;;
19733;SDS011;10018;51.230;7.860;2023-05-07T00:33:15;7.07;;;4.47;;
19733;SDS011;10018;51.230;7.860;2023-05-07T00:35:41;6.30;;;3.97;;
19733;SDS011;10018;51.230;7.860;2023-05-07T00:38:07;6.87;;;4.70;;
19733;SDS011;10018;51.230;7.860;2023-05-07T00:40:33;8.60;;;4.50;;
19733;SDS011;10018;51.230;7.860;2023-05-07T00:43:01;9.83;;;5.80;;
19733;SDS011;10018;51.230;7.860;2023-05-07T00:45:27;7.27;;;5.33;;
19733;SDS011;10018;51.230;7.860;2023-05-07T00:47:54;10.13;;;5.87;;
19733;SDS011;10018;51.230;7.860;2023-05-07T00:50:23;8.10;;;6.23;;
19733;SDS011;10018;51.230;7.860;2023-05-07T00:52:49;9.17;;;5.70;;
19733;SDS011;10018;51.230;7.860;2023-05-07T00:55:15;9.43;;;5.90;;
19733;SDS011;10018;51.230;7.860;2023-05-07T00:57:40;8.67;;;5.40;;
19733;SDS011;10018;51.230;7.860;2023-05-07T01:00:07;9.63;;;5.27;;
19733;SDS011;10018;51.230;7.860;2023-05-07T01:02:37;9.53;;;5.07;;
19733;SDS011;10018;51.230;7.860;2023-05-07T01:05:04;7.67;;;5.00;;
19733;SDS011;10018;51.230;7.860;2023-05-07T01:07:31;6.17;;;4.53;;
19733;SDS011;10018;51.230;7.860;2023-05-07T01:09:58;8.30;;;5.10;;
19733;SDS011;10018;51.230;7.860;2023-05-07T01:12:24;7.50;;;5.53;;
19733;SDS011;10018;51.230;7.860;2023-05-07T01:14:50;8.80;;;4.97;;
19733;SDS011;10018;51.230;7.860;2023-05-07T01:17:16;6.67;;;4.17;;
19733;SDS011;10018;51.230;7.860;2023-05-07T01:19:42;5.57;;;3.83;;
19733;SDS011;10018;51.230;7.860;2023-05-07T01:22:09;7.60;;;4.53;;
19733;SDS011;10018;51.230;7.860;2023-05-07T01:24:36;5.30;;;3.77;;
19733;SDS011;10018;51.230;7.860;2023-05-07T01:27:02;9.07;;;4.67;;
19733;SDS011;10018;51.230;7.860;2023-05-07T01:29:28;9.13;;;4.50;;
19733;SDS011;10018;51.230;7.860;2023-05-07T01:31:56;6.50;;;4.20;;
19733;SDS011;10018;51.230;7.860;2023-05-07T01:34:25;10.37;;;4.03;;
19733;SDS011;10018;51.230;7.860;2023-05-07T01:36:53;10.20;;;5.10;;
19733;SDS011;10018;51.230;7.860;2023-05-07T01:39:20;11.80;;;5.00;;
19733;SDS011;10018;51.230;7.860;2023-05-07T01:41:48;9.00;;;5.07;;
19733;SDS011;10018;51.230;7.860;2023-05-07T01:44:14;8.37;;;5.03;;
19733;SDS011;10018;51.230;7.860;2023-05-07T01:46:41;7.97;;;5.23;;
19733;SDS011;10018;51.230;7.860;2023-05-07T01:49:07;10.90;;;5.70;;
19733;SDS011;10018;51.230;7.860;2023-05-07T01:51:33;8.20;;;4.80;;
19733;SDS011;10018;51.230;7.860;2023-05-07T01:53:59;7.90;;;5.00;;
19733;SDS011;10018;51.230;7.860;2023-05-07T01:56:25;8.23;;;4.80;;
19733;SDS011;10018;51.230;7.860;2023-05-07T01:58:50;6.47;;;4.50;;
19733;SDS011;10018;51.230;7.860;2023-05-07T02:01:16;6.97;;;3.77;;
19733;SDS011;10018;51.230;7.860;2023-05-07T02:03:43;6.23;;;4.27;;
19733;SDS011;10018;51.230;7.860;2023-05-07T02:06:08;10.63;;;4.17;;
19733;SDS011;10018;51.230;7.860;2023-05-07T02:08:36;7.33;;;4.37;;
19733;SDS011;10018;51.230;7.860;2023-05-07T02:11:02;6.73;;;4.20;;
19733;SDS011;10018;51.230;7.860;2023-05-07T02:13:29;9.20;;;3.80;;
19733;SDS011;10018;51.230;7.860;2023-05-07T02:15:57;9.00;;;5.20;;
19733;SDS011;10018;51.230;7.860;2023-05-07T02:18:22;6.83;;;4.53;;
19733;SDS011;10018;51.230;7.860;2023-05-07T02:20:48;7.80;;;4.40;;
19733;SDS011;10018;51.230;7.860;2023-05-07T02:23:13;7.00;;;5.00;;
19733;SDS011;10018;51.230;7.860;2023-05-07T02:25:39;8.23;;;4.33;;
19733;SDS011;10018;51.230;7.860;2023-05-07T02:28:04;6.60;;;4.07;;
19733;SDS011;10018;51.230;7.860;2023-05-07T02:30:30;6.03;;;3.70;;
19733;SDS011;10018;51.230;7.860;2023-05-07T02:32:58;4.90;;;3.83;;
19733;SDS011;10018;51.230;7.860;2023-05-07T02:35:24;9.17;;;4.27;;
19733;SDS011;10018;51.230;7.860;2023-05-07T02:37:51;7.00;;;4.17;;
19733;SDS011;10018;51.230;7.860;2023-05-07T02:40:16;6.47;;;4.03;;
19733;SDS011;10018;51.230;7.860;2023-05-07T02:42:44;7.00;;;4.33;;
19733;SDS011;10018;51.230;7.860;2023-05-07T02:45:10;6.83;;;3.77;;
19733;SDS011;10018;51.230;7.860;2023-05-07T02:47:35;5.70;;;3.77;;
19733;SDS011;10018;51.230;7.860;2023-05-07T02:50:01;6.30;;;3.57;;
19733;SDS011;10018;51.230;7.860;2023-05-07T02:52:27;6.03;;;3.83;;
19733;SDS011;10018;51.230;7.860;2023-05-07T02:54:55;8.73;;;4.67;;
19733;SDS011;10018;51.230;7.860;2023-05-07T02:57:20;6.60;;;3.93;;
19733;SDS011;10018;51.230;7.860;2023-05-07T02:59:46;9.53;;;4.30;;
19733;SDS011;10018;51.230;7.860;2023-05-07T03:02:11;7.20;;;4.13;;
19733;SDS011;10018;51.230;7.860;2023-05-07T03:04:38;9.00;;;4.00;;
19733;SDS011;10018;51.230;7.860;2023-05-07T03:07:04;9.20;;;4.10;;
19733;SDS011;10018;51.230;7.860;2023-05-07T03:09:30;8.77;;;4.10;;
19733;SDS011;10018;51.230;7.860;2023-05-07T03:11:58;7.27;;;4.27;;
19733;SDS011;10018;51.230;7.860;2023-05-07T03:14:23;10.70;;;4.30;;
19733;SDS011;10018;51.230;7.860;2023-05-07T03:16:49;4.97;;;3.67;;
19733;SDS011;10018;51.230;7.860;2023-05-07T03:19:15;5.53;;;4.03;;
19733;SDS011;10018;51.230;7.860;2023-05-07T03:21:41;5.60;;;4.00;;
19733;SDS011;10018;51.230;7.860;2023-05-07T03:24:11;9.87;;;4.27;;
19733;SDS011;10018;51.230;7.860;2023-05-07T03:26:37;7.57;;;4.23;;
19733;SDS011;10018;51.230;7.860;2023-05-07T03:29:02;8.30;;;3.80;;
19733;SDS011;10018;51.230;7.860;2023-05-07T03:31:28;6.43;;;3.70;;
19733;SDS011;10018;51.230;7.860;2023-05-07T03:33:54;4.50;;;3.50;;
19733;SDS011;10018;51.230;7.860;2023-05-07T03:36:22;5.40;;;3.97;;
19733;SDS011;10018;51.230;7.860;2023-05-07T03:38:48;6.27;;;3.20;;
19733;SDS011;10018;51.230;7.860;2023-05-07T03:41:14;6.57;;;3.63;;
19733;SDS011;10018;51.230;7.860;2023-05-07T03:43:40;8.30;;;3.90;;
19733;SDS011;10018;51.230;7.860;2023-05-07T03:46:08;5.20;;;3.30;;
19733;SDS011;10018;51.230;7.860;2023-05-07T03:48:34;4.33;;;3.17;;
19733;SDS011;10018;51.230;7.860;2023-05-07T03:50:59;7.30;;;3.63;;
19733;SDS011;10018;51.230;7.860;2023-05-07T03:53:25;6.73;;;3.00;;
19733;SDS011;10018;51.230;7.860;2023-05-07T03:55:53;7.50;;;3.30;;
19733;SDS011;10018;51.230;7.860;2023-05-07T03:58:19;5.07;;;3.20;;
19733;SDS011;10018;51.230;7.860;2023-05-07T04:00:44;7.00;;;3.73;;
19733;SDS011;10018;51.230;7.860;2023-05-07T04:03:10;8.83;;;3.60;;
19733;SDS011;10018;51.230;7.860;2023-05-07T04:05:36;8.87;;;3.90;;
19733;SDS011;10018;51.230;7.860;2023-05-07T04:08:01;7.50;;;3.57;;
19733;SDS011;10018;51.230;7.860;2023-05-07T04:10:28;8.67;;;3.30;;
19733;SDS011;10018;51.230;7.860;2023-05-07T04:12:54;5.97;;;3.27;;
19733;SDS011;10018;51.230;7.860;2023-05-07T04:15:20;4.30;;;3.00;;
19733;SDS011;10018;51.230;7.860;2023-05-07T04:17:45;4.83;;;3.50;;
19733;SDS011;10018;51.230;7.860;2023-05-07T04:20:14;8.53;;;4.60;;
19733;SDS011;10018;51.230;7.860;2023-05-07T04:22:41;5.83;;;4.00;;
19733;SDS011;10018;51.230;7.860;2023-05-07T04:25:07;5.97;;;4.13;;
19733;SDS011;10018;51.230;7.860;2023-05-07T04:27:34;6.40;;;4.40;;
19733;SDS011;10018;51.230;7.860;2023-05-07T04:30:00;7.47;;;4.13;;
19733;SDS011;10018;51.230;7.860;2023-05-07T04:32:26;5.73;;;4.07;;
19733;SDS011;10018;51.230;7.860;2023-05-07T04:34:54;5.17;;;3.97;;
19733;SDS011;10018;51.230;7.860;2023-05-07T04:37:20;6.23;;;3.97;;
19733;SDS011;10018;51.230;7.860;2023-05-07T04:39:46;5.97;;;3.80;;
19733;SDS011;10018;51.230;7.860;2023-05-07T04:42:14;8.00;;;3.97;;
19733;SDS011;10018;51.230;7.860;2023-05-07T04:44:43;5.37;;;3.70;;
19733;SDS011;10018;51.230;7.860;2023-05-07T04:47:09;6.50;;;3.67;;
19733;SDS011;10018;51.230;7.860;2023-05-07T04:49:38;8.40;;;3.90;;
19733;SDS011;10018;51.230;7.860;2023-05-07T04:52:04;5.80;;;3.97;;
19733;SDS011;10018;51.230;7.860;2023-05-07T04:54:29;7.67;;;4.10;;
19733;SDS011;10018;51.230;7.860;2023-05-07T04:56:55;8.10;;;4.63;;
19733;SDS011;10018;51.230;7.860;2023-05-07T04:59:23;7.67;;;4.70;;
19733;SDS011;10018;51.230;7.860;2023-05-07T05:01:48;9.47;;;4.50;;
19733;SDS011;10018;51.230;7.860;2023-05-07T05:04:14;5.93;;;4.20;;
19733;SDS011;10018;51.230;7.860;2023-05-07T05:06:40;5.70;;;3.97;;
19733;SDS011;10018;51.230;7.860;2023-05-07T05:09:07;6.40;;;4.40;;
19733;SDS011;10018;51.230;7.860;2023-05-07T05:11:33;7.00;;;4.30;;
19733;SDS011;10018;51.230;7.860;2023-05-07T05:13:59;8.23;;;4.10;;
19733;SDS011;10018;51.230;7.860;2023-05-07T05:16:25;8.97;;;3.87;;
19733;SDS011;10018;51.230;7.860;2023-05-07T05:18:53;7.77;;;3.87;;
19733;SDS011;10018;51.230;7.860;2023-05-07T05:21:20;7.83;;;3.87;;
19733;SDS011;10018;51.230;7.860;2023-05-07T05:23:45;10.07;;;4.60;;
19733;SDS011;10018;51.230;7.860;2023-05-07T05:26:11;9.70;;;5.00;;
19733;SDS011;10018;51.230;7.860;2023-05-07T05:28:37;8.87;;;5.43;;
19733;SDS011;10018;51.230;7.860;2023-05-07T05:31:02;10.47;;;5.70;;
19733;SDS011;10018;51.230;7.860;2023-05-07T05:33:28;10.40;;;6.10;;
19733;SDS011;10018;51.230;7.860;2023-05-07T05:35:53;12.10;;;6.43;;
19733;SDS011;10018;51.230;7.860;2023-05-07T05:38:19;9.43;;;5.73;;
19733;SDS011;10018;51.230;7.860;2023-05-07T05:40:46;9.70;;;4.57;;
19733;SDS011;10018;51.230;7.860;2023-05-07T05:43:14;8.63;;;4.57;;
19733;SDS011;10018;51.230;7.860;2023-05-07T05:45:40;9.67;;;4.30;;
19733;SDS011;10018;51.230;7.860;2023-05-07T05:48:05;6.60;;;4.33;;
19733;SDS011;10018;51.230;7.860;2023-05-07T05:50:31;10.13;;;4.03;;
19733;SDS011;10018;51.230;7.860;2023-05-07T05:52:57;8.83;;;4.33;;
19733;SDS011;10018;51.230;7.860;2023-05-07T05:55:23;6.97;;;4.27;;
19733;SDS011;10018;51.230;7.860;2023-05-07T05:57:49;6.63;;;4.30;;
19733;SDS011;10018;51.230;7.860;2023-05-07T06:00:15;6.57;;;4.37;;
19733;SDS011;10018;51.230;7.860;2023-05-07T06:02:41;7.30;;;4.10;;
19733;SDS011;10018;51.230;7.860;2023-05-07T06:05:09;6.80;;;3.70;;
19733;SDS011;10018;51.230;7.860;2023-05-07T06:07:34;5.10;;;3.70;;
19733;SDS011;10018;51.230;7.860;2023-05-07T06:10:03;5.23;;;3.43;;
19733;SDS011;10018;51.230;7.860;2023-05-07T06:12:29;7.60;;;3.70;;
19733;SDS011;10018;51.230;7.860;2023-05-07T06:14:55;5.83;;;3.87;;
19733;SDS011;10018;51.230;7.860;2023-05-07T06:17:20;7.23;;;3.80;;
19733;SDS011;10018;51.230;7.860;2023-05-07T06:19:48;4.77;;;3.63;;
19733;SDS011;10018;51.230;7.860;2023-05-07T06:22:13;5.97;;;3.50;;
19733;SDS011;10018;51.230;7.860;2023-05-07T06:24:39;7.07;;;3.80;;
19733;SDS011;10018;51.230;7.860;2023-05-07T06:27:04;5.90;;;3.43;;
19733;SDS011;10018;51.230;7.860;2023-05-07T06:29:33;5.30;;;3.53;;
19733;SDS011;10018;51.230;7.860;2023-05-07T06:34:34;9.10;;;3.20;;
19733;SDS011;10018;51.230;7.860;2023-05-07T06:36:59;6.57;;;3.37;;
19733;SDS011;10018;51.230;7.860;2023-05-07T06:39:25;5.07;;;3.40;;
19733;SDS011;10018;51.230;7.860;2023-05-07T06:41:50;4.87;;;3.30;;
19733;SDS011;10018;51.230;7.860;2023-05-07T06:44:16;4.23;;;3.03;;
19733;SDS011;10018;51.230;7.860;2023-05-07T06:46:41;5.60;;;3.33;;
19733;SDS011;10018;51.230;7.860;2023-05-07T06:49:07;6.43;;;3.50;;
19733;SDS011;10018;51.230;7.860;2023-05-07T06:51:33;9.70;;;3.80;;
19733;SDS011;10018;51.230;7.860;2023-05-07T06:53:58;6.60;;;3.37;;
19733;SDS011;10018;51.230;7.860;2023-05-07T06:56:24;6.80;;;3.37;;
19733;SDS011;10018;51.230;7.860;2023-05-07T06:58:50;6.27;;;3.57;;
19733;SDS011;10018;51.230;7.860;2023-05-07T07:01:15;8.50;;;3.40;;
19733;SDS011;10018;51.230;7.860;2023-05-07T07:03:41;8.90;;;3.47;;
19733;SDS011;10018;51.230;7.860;2023-05-07T07:06:06;4.43;;;3.10;;
19733;SDS011;10018;51.230;7.860;2023-05-07T07:08:34;6.40;;;3.10;;
19733;SDS011;10018;51.230;7.860;2023-05-07T07:11:00;4.70;;;3.40;;
19733;SDS011;10018;51.230;7.860;2023-05-07T07:13:26;6.00;;;3.60;;
19733;SDS011;10018;51.230;7.860;2023-05-07T07:15:51;7.50;;;3.83;;
19733;SDS011;10018;51.230;7.860;2023-05-07T07:18:18;10.50;;;4.00;;
19733;SDS011;10018;51.230;7.860;2023-05-07T07:20:43;5.80;;;3.53;;
19733;SDS011;10018;51.230;7.860;2023-05-07T07:23:11;5.23;;;3.43;;
19733;SDS011;10018;51.230;7.860;2023-05-07T07:25:37;5.47;;;3.77;;
19733;SDS011;10018;51.230;7.860;2023-05-07T07:28:05;5.33;;;3.27;;
19733;SDS011;10018;51.230;7.860;2023-05-07T07:30:31;5.57;;;3.33;;
19733;SDS011;10018;51.230;7.860;2023-05-07T07:32:58;5.10;;;3.70;;
19733;SDS011;10018;51.230;7.860;2023-05-07T07:35:31;4.80;;;3.13;;
19733;SDS011;10018;51.230;7.860;2023-05-07T07:37:57;5.80;;;3.40;;
19733;SDS011;10018;51.230;7.860;2023-05-07T07:40:23;5.23;;;3.30;;
19733;SDS011;10018;51.230;7.860;2023-05-07T07:42:52;4.90;;;3.47;;
19733;SDS011;10018;51.230;7.860;2023-05-07T07:45:18;6.37;;;3.13;;
19733;SDS011;10018;51.230;7.860;2023-05-07T07:47:43;4.90;;;3.47;;
19733;SDS011;10018;51.230;7.860;2023-05-07T07:50:09;6.90;;;3.77;;
19733;SDS011;10018;51.230;7.860;2023-05-07T07:52:35;6.23;;;3.50;;
19733;SDS011;10018;51.230;7.860;2023-05-07T07:55:01;5.50;;;3.40;;
19733;SDS011;10018;51.230;7.860;2023-05-07T07:57:26;8.70;;;3.50;;
19733;SDS011;10018;51.230;7.860;2023-05-07T07:59:52;4.73;;;3.33;;
19733;SDS011;10018;51.230;7.860;2023-05-07T08:02:18;6.63;;;3.40;;
19733;SDS011;10018;51.230;7.860;2023-05-07T08:04:46;4.43;;;3.17;;
19733;SDS011;10018;51.230;7.860;2023-05-07T08:07:14;5.80;;;3.40;;
19733;SDS011;10018;51.230;7.860;2023-05-07T08:09:39;6.20;;;3.50;;
19733;SDS011;10018;51.230;7.860;2023-05-07T08:12:05;6.40;;;3.40;;
19733;SDS011;10018;51.230;7.860;2023-05-07T08:14:32;5.80;;;3.30;;
19733;SDS011;10018;51.230;7.860;2023-05-07T08:16:58;6.37;;;3.57;;
19733;SDS011;10018;51.230;7.860;2023-05-07T08:19:24;4.70;;;3.23;;
19733;SDS011;10018;51.230;7.860;2023-05-07T08:21:49;5.97;;;3.07;;
19733;SDS011;10018;51.230;7.860;2023-05-07T08:24:15;4.80;;;3.03;;
19733;SDS011;10018;51.230;7.860;2023-05-07T08:26:41;5.20;;;3.17;;
19733;SDS011;10018;51.230;7.860;2023-05-07T08:31:36;6.60;;;3.00;;
19733;SDS011;10018;51.230;7.860;2023-05-07T08:34:04;5.87;;;3.13;;
19733;SDS011;10018;51.230;7.860;2023-05-07T08:36:31;5.80;;;3.43;;
19733;SDS011;10018;51.230;7.860;2023-05-07T08:38:57;6.80;;;3.50;;
19733;SDS011;10018;51.230;7.860;2023-05-07T08:41:22;7.80;;;3.37;;
19733;SDS011;10018;51.230;7.860;2023-05-07T08:43:49;6.63;;;3.53;;
19733;SDS011;10018;51.230;7.860;2023-05-07T08:46:16;9.93;;;3.10;;
19733;SDS011;10018;51.230;7.860;2023-05-07T08:48:49;5.07;;;3.17;;
19733;SDS011;10018;51.230;7.860;2023-05-07T08:51:16;7.53;;;3.50;;
19733;SDS011;10018;51.230;7.860;2023-05-07T08:53:43;5.13;;;3.27;;
19733;SDS011;10018;51.230;7.860;2023-05-07T08:56:10;6.30;;;3.20;;
19733;SDS011;10018;51.230;7.860;2023-05-07T08:58:36;6.10;;;3.20;;
19733;SDS011;10018;51.230;7.860;2023-05-07T09:01:03;5.90;;;3.10;;
19733;SDS011;10018;51.230;7.860;2023-05-07T09:03:36;6.83;;;3.87;;
19733;SDS011;10018;51.230;7.860;2023-05-07T09:06:03;4.07;;;3.03;;
19733;SDS011;10018;51.230;7.860;2023-05-07T09:08:29;5.10;;;3.17;;
19733;SDS011;10018;51.230;7.860;2023-05-07T09:10:57;4.90;;;3.50;;
19733;SDS011;10018;51.230;7.860;2023-05-07T09:13:22;9.17;;;3.13;;
19733;SDS011;10018;51.230;7.860;2023-05-07T09:15:48;5.13;;;2.90;;
19733;SDS011;10018;51.230;7.860;2023-05-07T09:18:14;5.80;;;2.90;;
19733;SDS011;10018;51.230;7.860;2023-05-07T09:20:41;6.70;;;3.13;;
19733;SDS011;10018;51.230;7.860;2023-05-07T09:23:07;4.87;;;2.60;;
19733;SDS011;10018;51.230;7.860;2023-05-07T09:25:33;2.90;;;1.90;;
19733;SDS011;10018;51.230;7.860;2023-05-07T09:28:00;5.40;;;1.97;;
19733;SDS011;10018;51.230;7.860;2023-05-07T09:30:29;4.17;;;1.70;;
19733;SDS011;10018;51.230;7.860;2023-05-07T09:32:57;4.93;;;2.30;;
19733;SDS011;10018;51.230;7.860;2023-05-07T09:35:26;3.27;;;1.70;;
19733;SDS011;10018;51.230;7.860;2023-05-07T09:37:55;4.67;;;2.10;;
19733;SDS011;10018;51.230;7.860;2023-05-07T09:40:23;4.40;;;2.20;;
19733;SDS011;10018;51.230;7.860;2023-05-07T09:42:49;3.10;;;1.10;;
19733;SDS011;10018;51.230;7.860;2023-05-07T09:45:16;2.47;;;1.30;;
19733;SDS011;10018;51.230;7.860;2023-05-07T09:47:53;2.37;;;1.40;;
19733;SDS011;10018;51.230;7.860;2023-05-07T09:50:22;5.40;;;1.60;;
19733;SDS011;10018;51.230;7.860;2023-05-07T09:52:52;4.57;;;1.40;;
19733;SDS011;10018;51.230;7.860;2023-05-07T09:55:22;4.93;;;1.80;;
19733;SDS011;10018;51.230;7.860;2023-05-07T09:57:51;2.23;;;1.20;;
19733;SDS011;10018;51.230;7.860;2023-05-07T10:00:21;6.17;;;1.37;;
19733;SDS011;10018;51.230;7.860;2023-05-07T10:02:50;5.47;;;1.33;;
19733;SDS011;10018;51.230;7.860;2023-05-07T10:05:21;3.07;;;1.30;;
19733;SDS011;10018;51.230;7.860;2023-05-07T10:07:49;2.83;;;1.20;;
19733;SDS011;10018;51.230;7.860;2023-05-07T10:10:16;4.33;;;1.50;;
19733;SDS011;10018;51.230;7.860;2023-05-07T10:12:42;3.73;;;1.40;;
19733;SDS011;10018;51.230;7.860;2023-05-07T10:15:08;2.93;;;1.50;;
19733;SDS011;10018;51.230;7.860;2023-05-07T10:17:35;3.70;;;1.60;;
19733;SDS011;10018;51.230;7.860;2023-05-07T10:20:06;4.07;;;1.77;;
19733;SDS011;10018;51.230;7.860;2023-05-07T10:22:33;2.77;;;2.10;;
19733;SDS011;10018;51.230;7.860;2023-05-07T10:25:04;4.37;;;1.90;;
19733;SDS011;10018;51.230;7.860;2023-05-07T10:27:36;3.60;;;2.07;;
19733;SDS011;10018;51.230;7.860;2023-05-07T10:32:51;6.57;;;2.20;;
19733;SDS011;10018;51.230;7.860;2023-05-07T10:35:21;3.00;;;2.00;;
19733;SDS011;10018;51.230;7.860;2023-05-07T10:37:50;3.17;;;1.50;;
19733;SDS011;10018;51.230;7.860;2023-05-07T10:40:16;4.83;;;1.60;;
19733;SDS011;10018;51.230;7.860;2023-05-07T10:43:03;4.13;;;1.60;;
19733;SDS011;10018;51.230;7.860;2023-05-07T10:45:32;2.63;;;1.80;;
19733;SDS011;10018;51.230;7.860;2023-05-07T10:50:30;5.00;;;2.00;;
19733;SDS011;10018;51.230;7.860;2023-05-07T10:55:44;4.20;;;2.00;;
19733;SDS011;10018;51.230;7.860;2023-05-07T10:58:32;3.13;;;2.00;;
19733;SDS011;10018;51.230;7.860;2023-05-07T11:01:00;4.13;;;2.73;;
19733;SDS011;10018;51.230;7.860;2023-05-07T11:03:27;3.40;;;1.70;;
19733;SDS011;10018;51.230;7.860;2023-05-07T11:14:09;4.47;;;1.83;;
19733;SDS011;10018;51.230;7.860;2023-05-07T11:16:35;3.23;;;2.10;;
19733;SDS011;10018;51.230;7.860;2023-05-07T11:19:02;3.13;;;1.90;;
19733;SDS011;10018;51.230;7.860;2023-05-07T11:21:32;6.33;;;1.90;;
19733;SDS011;10018;51.230;7.860;2023-05-07T11:24:05;5.23;;;2.17;;
19733;SDS011;10018;51.230;7.860;2023-05-07T11:26:45;2.90;;;1.90;;
19733;SDS011;10018;51.230;7.860;2023-05-07T11:29:18;2.60;;;1.73;;
19733;SDS011;10018;51.230;7.860;2023-05-07T11:31:48;6.23;;;2.40;;
19733;SDS011;10018;51.230;7.860;2023-05-07T11:34:21;3.70;;;2.07;;
19733;SDS011;10018;51.230;7.860;2023-05-07T11:36:48;4.17;;;2.87;;
19733;SDS011;10018;51.230;7.860;2023-05-07T11:39:27;4.20;;;2.90;;
19733;SDS011;10018;51.230;7.860;2023-05-07T11:41:56;5.37;;;3.20;;
19733;SDS011;10018;51.230;7.860;2023-05-07T11:44:24;6.03;;;3.10;;
19733;SDS011;10018;51.230;7.860;2023-05-07T11:46:50;7.77;;;3.27;;
19733;SDS011;10018;51.230;7.860;2023-05-07T11:49:16;4.70;;;3.10;;
19733;SDS011;10018;51.230;7.860;2023-05-07T11:51:42;3.87;;;3.07;;
19733;SDS011;10018;51.230;7.860;2023-05-07T11:54:08;5.33;;;3.13;;
19733;SDS011;10018;51.230;7.860;2023-05-07T11:56:36;4.53;;;2.97;;
19733;SDS011;10018;51.230;7.860;2023-05-07T11:59:05;4.10;;;2.80;;
19733;SDS011;10018;51.230;7.860;2023-05-07T12:01:34;4.87;;;3.40;;
19733;SDS011;10018;51.230;7.860;2023-05-07T12:04:03;6.07;;;3.13;;
19733;SDS011;10018;51.230;7.860;2023-05-07T12:06:30;5.60;;;3.37;;
19733;SDS011;10018;51.230;7.860;2023-05-07T12:08:57;4.47;;;3.13;;
19733;SDS011;10018;51.230;7.860;2023-05-07T12:11:24;6.30;;;2.97;;
19733;SDS011;10018;51.230;7.860;2023-05-07T12:13:50;4.73;;;2.40;;
19733;SDS011;10018;51.230;7.860;2023-05-07T12:16:16;6.57;;;2.40;;
19733;SDS011;10018;51.230;7.860;2023-05-07T12:18:42;13.33;;;3.57;;
19733;SDS011;10018;51.230;7.860;2023-05-07T12:21:09;11.00;;;3.60;;
19733;SDS011;10018;51.230;7.860;2023-05-07T12:23:36;9.57;;;3.83;;
19733;SDS011;10018;51.230;7.860;2023-05-07T12:26:02;6.80;;;3.53;;
19733;SDS011;10018;51.230;7.860;2023-05-07T12:28:28;8.93;;;3.70;;
19733;SDS011;10018;51.230;7.860;2023-05-07T12:30:55;8.87;;;3.60;;
19733;SDS011;10018;51.230;7.860;2023-05-07T12:33:25;7.80;;;4.40;;
19733;SDS011;10018;51.230;7.860;2023-05-07T12:35:52;6.80;;;4.03;;
19733;SDS011;10018;51.230;7.860;2023-05-07T12:38:19;8.10;;;4.20;;
19733;SDS011;10018;51.230;7.860;2023-05-07T12:40:49;8.00;;;4.30;;
19733;SDS011;10018;51.230;7.860;2023-05-07T12:43:28;7.27;;;4.17;;
19733;SDS011;10018;51.230;7.860;2023-05-07T12:45:56;8.73;;;4.83;;
19733;SDS011;10018;51.230;7.860;2023-05-07T12:48:24;8.83;;;4.40;;
19733;SDS011;10018;51.230;7.860;2023-05-07T12:50:59;9.63;;;4.83;;
19733;SDS011;10018;51.230;7.860;2023-05-07T12:53:26;9.57;;;5.17;;
19733;SDS011;10018;51.230;7.860;2023-05-07T12:55:53;8.97;;;4.97;;
19733;SDS011;10018;51.230;7.860;2023-05-07T12:58:22;10.03;;;4.63;;
19733;SDS011;10018;51.230;7.860;2023-05-07T13:00:53;7.17;;;4.53;;
19733;SDS011;10018;51.230;7.860;2023-05-07T13:05:52;6.50;;;5.10;;
19733;SDS011;10018;51.230;7.860;2023-05-07T13:08:23;13.10;;;5.57;;
19733;SDS011;10018;51.230;7.860;2023-05-07T13:10:52;8.07;;;5.83;;
19733;SDS011;10018;51.230;7.860;2023-05-07T13:13:18;8.73;;;5.40;;
19733;SDS011;10018;51.230;7.860;2023-05-07T13:15:45;8.93;;;5.60;;
19733;SDS011;10018;51.230;7.860;2023-05-07T13:18:11;6.23;;;4.90;;
19733;SDS011;10018;51.230;7.860;2023-05-07T13:20:36;7.50;;;5.50;;
19733;SDS011;10018;51.230;7.860;2023-05-07T13:23:02;7.13;;;5.03;;
19733;SDS011;10018;51.230;7.860;2023-05-07T13:25:29;9.90;;;5.43;;
19733;SDS011;10018;51.230;7.860;2023-05-07T13:27:58;7.10;;;5.60;;
19733;SDS011;10018;51.230;7.860;2023-05-07T13:30:24;6.60;;;5.73;;
19733;SDS011;10018;51.230;7.860;2023-05-07T13:32:50;10.80;;;5.97;;
19733;SDS011;10018;51.230;7.860;2023-05-07T13:35:17;9.17;;;5.80;;
19733;SDS011;10018;51.230;7.860;2023-05-07T13:37:43;7.83;;;5.43;;
19733;SDS011;10018;51.230;7.860;2023-05-07T13:40:08;12.13;;;7.70;;
19733;SDS011;10018;51.230;7.860;2023-05-07T13:42:37;9.63;;;6.03;;
19733;SDS011;10018;51.230;7.860;2023-05-07T13:45:02;7.43;;;4.20;;
19733;SDS011;10018;51.230;7.860;2023-05-07T13:47:30;6.30;;;3.87;;
19733;SDS011;10018;51.230;7.860;2023-05-07T13:49:55;5.33;;;4.47;;
19733;SDS011;10018;51.230;7.860;2023-05-07T13:52:21;7.97;;;4.10;;
19733;SDS011;10018;51.230;7.860;2023-05-07T13:54:47;7.60;;;4.73;;
19733;SDS011;10018;51.230;7.860;2023-05-07T13:57:12;7.93;;;4.03;;
19733;SDS011;10018;51.230;7.860;2023-05-07T13:59:38;6.60;;;4.07;;
19733;SDS011;10018;51.230;7.860;2023-05-07T14:02:03;8.97;;;4.40;;
19733;SDS011;10018;51.230;7.860;2023-05-07T14:04:30;7.63;;;4.60;;
19733;SDS011;10018;51.230;7.860;2023-05-07T14:06:55;8.03;;;4.70;;
19733;SDS011;10018;51.230;7.860;2023-05-07T14:09:21;6.50;;;4.43;;
19733;SDS011;10018;51.230;7.860;2023-05-07T14:11:46;5.30;;;4.50;;
19733;SDS011;10018;51.230;7.860;2023-05-07T14:14:16;6.27;;;4.23;;
19733;SDS011;10018;51.230;7.860;2023-05-07T14:16:44;6.23;;;4.67;;
19733;SDS011;10018;51.230;7.860;2023-05-07T14:19:11;5.80;;;3.90;;
19733;SDS011;10018;51.230;7.860;2023-05-07T14:21:37;5.33;;;3.50;;
19733;SDS011;10018;51.230;7.860;2023-05-07T14:24:02;6.63;;;3.60;;
19733;SDS011;10018;51.230;7.860;2023-05-07T14:26:31;5.83;;;4.03;;
19733;SDS011;10018;51.230;7.860;2023-05-07T14:28:57;4.07;;;3.10;;
19733;SDS011;10018;51.230;7.860;2023-05-07T14:31:23;4.80;;;3.37;;
19733;SDS011;10018;51.230;7.860;2023-05-07T14:33:49;4.90;;;3.47;;
19733;SDS011;10018;51.230;7.860;2023-05-07T14:36:15;7.50;;;3.20;;
19733;SDS011;10018;51.230;7.860;2023-05-07T14:38:42;5.57;;;2.83;;
19733;SDS011;10018;51.230;7.860;2023-05-07T14:41:07;4.30;;;3.10;;
19733;SDS011;10018;51.230;7.860;2023-05-07T14:43:33;6.80;;;3.10;;
19733;SDS011;10018;51.230;7.860;2023-05-07T14:45:59;4.47;;;3.20;;
19733;SDS011;10018;51.230;7.860;2023-05-07T14:48:24;5.07;;;3.60;;
19733;SDS011;10018;51.230;7.860;2023-05-07T14:50:52;5.20;;;3.20;;
19733;SDS011;10018;51.230;7.860;2023-05-07T14:53:17;4.63;;;3.07;;
19733;SDS011;10018;51.230;7.860;2023-05-07T14:55:43;4.77;;;3.10;;
19733;SDS011;10018;51.230;7.860;2023-05-07T14:58:09;6.80;;;3.13;;
19733;SDS011;10018;51.230;7.860;2023-05-07T15:00:35;8.90;;;5.27;;
19733;SDS011;10018;51.230;7.860;2023-05-07T15:03:05;6.60;;;4.83;;
19733;SDS011;10018;51.230;7.860;2023-05-07T15:05:32;5.03;;;3.50;;
19733;SDS011;10018;51.230;7.860;2023-05-07T15:07:58;5.27;;;3.50;;
19733;SDS011;10018;51.230;7.860;2023-05-07T15:10:24;4.73;;;3.60;;